Time;durP1;ratioP1;P1;durP2;ratioP2;P2;SDS_P1;SDS_P2;PMS_P1;PMS_P2;Temp;Humidity;BMP_temperature;BMP_pressure;BME280_temperature;BME280_humidity;BME280_pressure;Samples;Min_cycle;Max_cycle;Signal;HPM_P1;HPM_P2
2022/05/12 00:00:06;;;;;;;8.50;5.90;;;;;;;18.60;53.29;99877.59;4418029;32;32124;-85
2022/05/12 00:02:43;;;;;;;10.48;6.43;;;;;;;18.50;53.55;99877.41;4419648;32;31594;-84
2022/05/12 00:05:14;;;;;;;10.15;6.32;;;;;;;18.49;53.59;99884.06;4418202;32;32106;-85
2022/05/12 00:07:50;;;;;;;9.05;6.28;;;;;;;18.43;53.85;99874.81;4429310;32;33021;-84
2022/05/12 00:10:23;;;;;;;8.88;6.32;;;;;;;18.49;53.90;99880.44;4429803;32;33826;-85
2022/05/12 00:12:57;;;;;;;9.50;6.50;;;;;;;18.40;54.15;99882.81;4429946;32;32409;-83
2022/05/12 00:15:34;;;;;;;8.82;5.72;;;;;;;18.21;54.95;99879.47;4429885;32;34495;-85
2022/05/12 00:18:06;;;;;;;12.63;6.12;;;;;;;18.36;54.40;99874.16;4416616;32;33777;-85
2022/05/12 00:20:39;;;;;;;8.88;6.03;;;;;;;18.39;54.05;99881.13;4430490;32;34003;-84
2022/05/12 00:23:17;;;;;;;8.68;5.80;;;;;;;18.36;54.42;99879.69;4430125;32;32627;-83
2022/05/12 00:25:49;;;;;;;9.13;5.72;;;;;;;18.31;54.31;99873.22;4430476;32;32670;-84
2022/05/12 00:28:21;;;;;;;10.65;6.18;;;;;;;18.08;55.01;99875.12;4415952;32;33625;-86
2022/05/12 00:30:53;;;;;;;8.57;6.00;;;;;;;18.19;54.67;99864.19;4415945;32;32663;-84
2022/05/12 00:33:22;;;;;;;8.88;5.20;;;;;;;18.20;54.58;99866.66;4415826;32;31757;-85
2022/05/12 00:35:54;;;;;;;9.50;6.20;;;;;;;18.17;54.48;99866.38;4428616;32;32919;-84
2022/05/12 00:38:22;;;;;;;9.23;5.78;;;;;;;18.18;54.52;99868.91;4428023;32;32950;-84
2022/05/12 00:40:50;;;;;;;9.65;5.90;;;;;;;18.25;54.15;99863.13;4428100;32;32539;-84
2022/05/12 00:43:59;;;;;;;8.35;6.12;;;;;;;18.24;54.00;99861.44;4428404;32;31964;-84
2022/05/12 00:46:32;;;;;;;9.60;5.53;;;;;;;18.30;53.89;99869.59;4382188;32;32846;-84
2022/05/12 00:49:26;;;;;;;8.15;5.78;;;;;;;18.16;54.25;99862.75;4394229;32;32971;-84
2022/05/12 00:52:06;;;;;;;9.25;5.87;;;;;;;18.14;54.27;99875.22;4411792;32;32407;-84
2022/05/12 00:54:52;;;;;;;9.73;6.10;;;;;;;18.05;54.66;99867.31;4428539;32;32061;-84
2022/05/12 00:57:29;;;;;;;10.30;5.97;;;;;;;18.04;54.75;99868.41;4440954;32;33793;-84
2022/05/12 00:59:58;;;;;;;9.70;5.80;;;;;;;17.95;54.95;99858.81;4427963;32;34245;-85
2022/05/12 01:02:26;;;;;;;12.32;6.03;;;;;;;17.88;55.26;99863.69;4427448;32;32426;-84
2022/05/12 01:04:57;;;;;;;8.48;5.47;;;;;;;17.89;55.35;99868.16;4428242;32;32476;-84
2022/05/12 01:07:25;;;;;;;9.40;5.93;;;;;;;17.87;55.24;99867.56;4430880;32;33937;-84
2022/05/12 01:09:54;;;;;;;9.05;5.78;;;;;;;17.98;54.82;99863.84;4420237;32;33105;-84
2022/05/12 01:12:22;;;;;;;8.93;5.82;;;;;;;17.79;55.47;99876.31;4433089;32;33982;-84
2022/05/12 01:14:50;;;;;;;10.52;5.87;;;;;;;17.84;55.30;99867.22;4432128;32;33479;-84
2022/05/12 01:17:24;;;;;;;10.23;5.37;;;;;;;17.76;55.46;99863.75;4441777;32;33271;-84
2022/05/12 01:19:53;;;;;;;7.50;5.40;;;;;;;17.75;55.29;99862.09;4427771;32;32850;-84
2022/05/12 01:22:43;;;;;;;7.50;5.30;;;;;;;17.74;55.32;99868.72;4416118;32;33814;-83
2022/05/12 01:25:15;;;;;;;8.10;5.70;;;;;;;17.84;55.19;99870.84;4428671;32;33058;-85
2022/05/12 01:27:43;;;;;;;8.50;5.60;;;;;;;17.83;55.23;99862.75;4415697;32;33528;-84
2022/05/12 01:30:13;;;;;;;11.73;5.45;;;;;;;17.73;55.56;99869.81;4440683;32;34677;-84
2022/05/12 01:32:49;;;;;;;11.18;5.85;;;;;;;17.71;55.67;99860.91;4427769;32;32930;-84
2022/05/12 01:35:20;;;;;;;9.30;5.68;;;;;;;17.51;56.38;99862.47;4416332;32;31729;-84
2022/05/12 01:37:48;;;;;;;9.40;5.82;;;;;;;17.45;56.56;99869.84;4428134;32;33400;-84
2022/05/12 01:40:20;;;;;;;9.50;5.65;;;;;;;17.62;56.08;99864.31;4415275;32;33950;-84
2022/05/12 01:42:49;;;;;;;10.57;5.78;;;;;;;17.51;56.52;99862.47;4441385;32;33822;-84
2022/05/12 01:45:18;;;;;;;11.15;5.37;;;;;;;17.60;56.03;99867.34;4428638;32;31476;-84
2022/05/12 01:47:46;;;;;;;9.07;6.32;;;;;;;17.60;55.85;99861.78;4415829;32;32563;-84
2022/05/12 01:50:14;;;;;;;10.32;6.28;;;;;;;17.61;55.84;99865.41;4415708;32;33049;-84
2022/05/12 01:52:44;;;;;;;8.07;5.70;;;;;;;17.41;56.54;99858.41;4414098;32;33504;-84
2022/05/12 01:55:17;;;;;;;8.18;5.78;;;;;;;17.48;56.25;99869.38;4427984;32;32928;-84
2022/05/12 01:57:47;;;;;;;8.10;6.05;;;;;;;17.34;56.57;99860.50;4428218;32;31932;-84
2022/05/12 02:00:19;;;;;;;9.23;5.37;;;;;;;17.38;56.47;99864.47;4428248;32;33612;-84
2022/05/12 02:02:47;;;;;;;8.98;5.90;;;;;;;17.25;57.11;99853.69;4415671;32;32225;-84
2022/05/12 02:05:19;;;;;;;7.93;5.53;;;;;;;17.22;57.13;99856.09;4415812;32;31699;-84
2022/05/12 02:07:49;;;;;;;10.65;6.15;;;;;;;17.33;56.78;99858.81;4427152;32;33247;-84
2022/05/12 02:10:21;;;;;;;8.65;5.65;;;;;;;17.32;56.89;99847.97;4428032;32;34418;-84
2022/05/12 02:12:49;;;;;;;10.55;5.55;;;;;;;17.21;57.19;99838.63;4415388;32;32399;-84
2022/05/12 02:15:17;;;;;;;12.13;6.18;;;;;;;17.18;57.41;99836.34;4415274;32;31477;-84
2022/05/12 02:17:45;;;;;;;9.63;5.87;;;;;;;17.10;57.86;99832.03;4415046;32;32740;-84
2022/05/12 02:20:14;;;;;;;8.15;5.72;;;;;;;17.14;57.70;99829.59;4415678;32;33763;-84
2022/05/12 02:22:42;;;;;;;11.35;5.85;;;;;;;17.13;57.87;99831.53;4415256;32;33001;-84
2022/05/12 02:25:11;;;;;;;9.82;5.95;;;;;;;17.21;57.46;99835.84;4415472;32;31686;-84
2022/05/12 02:27:45;;;;;;;8.82;5.93;;;;;;;17.12;57.82;99843.72;4428014;32;33180;-84
2022/05/12 02:30:41;;;;;;;8.73;5.95;;;;;;;17.19;57.66;99832.47;4415701;32;34591;-84
2022/05/12 02:33:09;;;;;;;9.75;5.68;;;;;;;17.22;57.57;99840.31;4426554;32;33170;-84
2022/05/12 02:35:38;;;;;;;8.57;6.00;;;;;;;17.30;57.14;99847.38;4427797;32;31910;-84
2022/05/12 02:38:07;;;;;;;9.30;6.00;;;;;;;17.22;57.36;99843.06;4427863;32;31944;-84
2022/05/12 02:40:35;;;;;;;9.23;5.93;;;;;;;17.24;57.30;99845.59;4428020;32;34388;-84
2022/05/12 02:43:23;;;;;;;11.05;5.85;;;;;;;17.21;57.36;99852.47;4427543;32;33410;-84
2022/05/12 02:45:53;;;;;;;10.27;6.47;;;;;;;17.22;57.32;99850.56;4427481;32;32172;-84
2022/05/12 02:48:23;;;;;;;9.05;6.15;;;;;;;17.10;57.79;99851.44;4428183;32;33537;-84
2022/05/12 02:50:51;;;;;;;9.57;6.05;;;;;;;17.10;57.67;99840.34;4427770;32;33887;-84
2022/05/12 02:53:19;;;;;;;8.45;6.18;;;;;;;17.17;57.56;99853.22;4440464;32;33473;-84
2022/05/12 02:55:53;;;;;;;9.30;5.80;;;;;;;17.24;57.29;99849.22;4428714;32;33349;-84
2022/05/12 02:58:21;;;;;;;9.15;6.20;;;;;;;17.22;57.40;99856.94;4427474;32;33820;-84
2022/05/12 03:00:50;;;;;;;8.95;6.47;;;;;;;17.09;57.72;99858.09;4427250;32;35195;-84
2022/05/12 03:03:19;;;;;;;9.40;6.10;;;;;;;17.21;57.29;99866.34;4440171;32;32060;-84
2022/05/12 03:05:47;;;;;;;8.02;5.68;;;;;;;17.19;57.37;99853.81;4427789;32;33408;-84
2022/05/12 03:08:14;;;;;;;8.23;5.72;;;;;;;17.20;57.42;99866.59;4414687;32;32358;-84
2022/05/12 03:10:43;;;;;;;9.80;5.97;;;;;;;17.30;57.07;99861.25;4414765;32;33244;-84
2022/05/12 03:13:11;;;;;;;11.15;6.10;;;;;;;17.18;57.58;99869.63;4427327;32;32495;-84
2022/05/12 03:15:38;;;;;;;8.50;5.97;;;;;;;17.07;57.81;99876.91;4414534;32;32764;-84
2022/05/12 03:18:07;;;;;;;9.80;5.90;;;;;;;17.20;57.43;99872.16;4427617;32;33687;-84
2022/05/12 03:20:34;;;;;;;10.00;5.78;;;;;;;17.26;57.14;99872.00;4428475;32;32847;-84
2022/05/12 03:23:03;;;;;;;9.52;6.12;;;;;;;17.08;57.68;99877.75;4415508;32;33115;-84
2022/05/12 03:25:31;;;;;;;10.32;6.47;;;;;;;17.11;57.70;99885.56;4429546;32;33465;-84
2022/05/12 03:28:00;;;;;;;9.80;6.43;;;;;;;17.19;57.28;99879.63;4429200;32;32300;-84
2022/05/12 03:30:27;;;;;;;9.32;6.00;;;;;;;17.27;56.95;99878.37;4429166;32;32979;-84
2022/05/12 03:32:56;;;;;;;8.70;6.18;;;;;;;17.12;57.34;99876.16;4429323;32;31988;-83
2022/05/12 03:35:24;;;;;;;8.13;5.80;;;;;;;17.12;57.26;99874.22;4432034;32;31926;-84
2022/05/12 03:37:51;;;;;;;8.50;5.53;;;;;;;17.03;57.83;99874.88;4432051;32;32391;-83
2022/05/12 03:40:20;;;;;;;9.93;6.00;;;;;;;17.13;57.62;99872.28;4431034;32;33184;-84
2022/05/12 03:42:52;;;;;;;12.20;5.68;;;;;;;17.19;57.44;99873.25;4430540;32;33921;-84
2022/05/12 03:45:22;;;;;;;12.07;6.32;;;;;;;17.05;57.82;99881.00;4442517;32;32809;-83
2022/05/12 03:47:50;;;;;;;15.73;6.55;;;;;;;17.04;58.00;99877.38;4429980;32;33684;-83
2022/05/12 03:50:20;;;;;;;10.63;6.68;;;;;;;17.13;57.94;99880.63;4428874;32;32410;-84
2022/05/12 03:52:48;;;;;;;11.07;6.00;;;;;;;17.22;57.71;99876.34;4428852;32;33654;-85
2022/05/12 03:55:18;;;;;;;10.40;6.30;;;;;;;17.16;57.92;99877.34;4428629;32;31754;-85
2022/05/12 03:57:53;;;;;;;11.35;6.93;;;;;;;17.26;57.69;99882.25;4415915;32;33196;-85
2022/05/12 04:00:26;;;;;;;10.82;6.50;;;;;;;17.21;57.98;99883.00;4416695;32;34032;-91
2022/05/12 04:02:58;;;;;;;9.00;6.15;;;;;;;17.19;58.37;99892.66;4428984;32;33628;-91
2022/05/12 04:05:27;;;;;;;9.60;6.50;;;;;;;17.17;58.57;99884.56;4428780;32;32964;-89
2022/05/12 04:07:58;;;;;;;9.48;6.55;;;;;;;17.36;57.98;99882.44;4416190;32;32274;-90
2022/05/12 04:10:27;;;;;;;13.32;7.40;;;;;;;17.44;57.74;99880.13;4428743;32;33954;-89
2022/05/12 04:12:55;;;;;;;10.32;6.22;;;;;;;17.60;57.45;99892.31;4416133;32;32628;-87
2022/05/12 04:15:23;;;;;;;11.38;7.53;;;;;;;17.67;57.27;99889.41;4441155;32;31844;-86
2022/05/12 04:18:02;;;;;;;10.90;6.32;;;;;;;17.40;58.43;99890.03;4414992;32;34101;-89
2022/05/12 04:20:32;;;;;;;11.27;6.70;;;;;;;17.66;57.91;99890.50;4427332;32;34263;-80
2022/05/12 04:22:59;;;;;;;10.35;6.35;;;;;;;17.66;57.85;99893.28;4426426;32;32383;-81
2022/05/12 04:25:27;;;;;;;14.20;6.18;;;;;;;17.72;58.19;99901.44;4414034;32;33591;-82
2022/05/12 04:27:55;;;;;;;9.55;7.25;;;;;;;17.77;58.04;99900.69;4439689;32;33681;-83
2022/05/12 04:30:25;;;;;;;10.85;7.10;;;;;;;17.86;57.97;99901.13;4426693;32;34287;-83
2022/05/12 04:35:09;;;;;;;12.37;6.87;;;;;;;17.92;57.84;99900.97;4425787;32;32447;-83
2022/05/12 04:35:44;;;;;;;16.40;10.43;;;;;;;17.96;58.05;99902.16;4443051;32;33426;-83
2022/05/12 04:38:12;;;;;;;15.38;10.88;;;;;;;18.00;58.42;99905.25;4428436;32;33193;-84
2022/05/12 04:40:40;;;;;;;12.25;8.55;;;;;;;18.00;57.92;99905.25;4428314;32;33950;-85
2022/05/12 04:43:08;;;;;;;12.93;7.10;;;;;;;18.22;57.73;99908.09;4441220;32;32355;-84
2022/05/12 04:45:36;;;;;;;10.40;7.37;;;;;;;18.34;57.57;99919.97;4428296;32;31525;-84
2022/05/12 04:48:04;;;;;;;10.98;6.90;;;;;;;18.32;57.19;99922.16;4415618;32;33113;-83
2022/05/12 04:50:35;;;;;;;11.50;6.32;;;;;;;18.41;56.95;99918.69;4428525;32;32855;-83
2022/05/12 04:53:03;;;;;;;10.10;6.93;;;;;;;18.55;56.50;99927.50;4428616;32;34799;-84
2022/05/12 04:55:34;;;;;;;11.50;6.68;;;;;;;18.55;56.53;99921.94;4441072;32;31500;-84
2022/05/12 04:58:02;;;;;;;11.20;7.40;;;;;;;18.69;56.50;99920.53;4428773;32;34645;-82
2022/05/12 05:00:36;;;;;;;13.73;7.00;;;;;;;18.72;57.04;99924.72;4428482;32;32873;-80
2022/05/12 05:03:04;;;;;;;11.05;7.43;;;;;;;18.84;56.36;99921.84;4415616;32;34033;-79
2022/05/12 05:05:33;;;;;;;9.80;6.82;;;;;;;18.99;55.50;99922.84;4426050;32;33320;-80
2022/05/12 05:08:01;;;;;;;9.60;6.95;;;;;;;19.13;55.45;99925.25;4425686;32;35109;-81
2022/05/12 05:10:31;;;;;;;15.68;7.57;;;;;;;19.22;55.19;99924.53;4414915;32;34603;-80
2022/05/12 05:13:00;;;;;;;11.63;6.75;;;;;;;19.26;55.33;99922.91;4439381;32;33756;-80
2022/05/12 05:15:27;;;;;;;13.55;7.30;;;;;;;19.52;55.31;99926.00;4427761;32;34091;-80
2022/05/12 05:17:58;;;;;;;10.43;7.45;;;;;;;19.52;55.19;99926.84;4427841;32;32384;-80
2022/05/12 05:20:27;;;;;;;11.27;7.72;;;;;;;19.49;55.83;99924.56;4427661;32;34440;-79
2022/05/12 05:22:56;;;;;;;11.95;7.00;;;;;;;19.52;56.54;99920.44;4439961;32;34097;-78
2022/05/12 05:25:24;;;;;;;10.02;6.80;;;;;;;19.72;56.02;99923.44;4438424;32;34064;-79
2022/05/12 05:27:54;;;;;;;9.10;6.20;;;;;;;19.74;54.24;99921.22;4426195;32;34724;-79
2022/05/12 05:30:24;;;;;;;13.30;6.45;;;;;;;19.93;53.39;99921.69;4440883;32;35317;-79
2022/05/12 05:32:52;;;;;;;12.20;7.25;;;;;;;20.00;52.67;99923.16;4440711;32;34097;-80
2022/05/12 05:35:21;;;;;;;9.93;6.78;;;;;;;20.09;52.16;99923.50;4427898;32;33745;-79
2022/05/12 05:37:51;;;;;;;10.30;7.30;;;;;;;20.42;51.13;99927.13;4456040;32;33714;-79
2022/05/12 05:40:24;;;;;;;12.60;6.25;;;;;;;20.52;50.48;99922.47;4443849;32;34262;-79
2022/05/12 05:42:55;;;;;;;13.60;7.07;;;;;;;20.47;50.61;99921.59;4456754;32;33885;-79
2022/05/12 05:45:24;;;;;;;13.15;8.63;;;;;;;20.61;50.15;99923.63;4456279;32;34428;-80
2022/05/12 05:47:55;;;;;;;27.75;14.13;;;;;;;20.70;50.33;99921.19;4443423;32;33409;-79
2022/05/12 05:53:38;;;;;;;21.35;12.52;;;;;;;20.88;49.07;99926.28;4456101;32;33434;-80
2022/05/12 05:56:12;;;;;;;11.93;7.97;;;;;;;20.92;49.93;99924.63;4456185;32;34160;-80
2022/05/12 05:58:40;;;;;;;18.52;9.90;;;;;;;21.10;49.40;99928.06;4455956;32;32281;-79
2022/05/12 06:01:15;;;;;;;12.95;7.00;;;;;;;21.28;48.74;99924.81;4456574;32;34497;-80
2022/05/12 06:03:46;;;;;;;19.40;10.13;;;;;;;21.41;48.18;99926.25;4443715;32;33329;-80
2022/05/12 06:06:13;;;;;;;8.90;6.00;;;;;;;21.33;48.59;99933.22;4456161;32;33615;-80
2022/05/12 06:08:41;;;;;;;8.90;6.28;;;;;;;21.39;48.20;99929.34;4456113;32;34482;-80
2022/05/12 06:11:09;;;;;;;9.60;6.40;;;;;;;21.53;47.73;99932.41;4443557;32;34660;-80
2022/05/12 06:13:36;;;;;;;10.27;6.18;;;;;;;21.57;48.08;99926.00;4443289;32;32418;-80
2022/05/12 06:16:05;;;;;;;9.63;5.80;;;;;;;21.53;47.60;99932.41;4443482;32;34339;-80
2022/05/12 06:18:37;;;;;;;11.80;5.60;;;;;;;21.60;47.82;99933.00;4443772;32;34632;-81
2022/05/12 06:21:05;;;;;;;12.30;6.32;;;;;;;21.68;47.44;99924.91;4443698;32;34382;-80
2022/05/12 06:23:33;;;;;;;10.40;6.60;;;;;;;21.94;46.96;99927.75;4456110;32;34658;-80
2022/05/12 06:26:02;;;;;;;9.43;6.00;;;;;;;21.89;47.23;99923.00;4443303;32;33574;-80
2022/05/12 06:28:30;;;;;;;15.48;7.78;;;;;;;21.80;47.71;99921.88;4443019;32;32393;-80
2022/05/12 06:30:58;;;;;;;9.30;5.75;;;;;;;21.98;47.56;99929.72;4443381;32;34519;-79
2022/05/12 06:33:28;;;;;;;10.82;6.10;;;;;;;22.17;47.08;99930.00;4443298;32;34850;-80
2022/05/12 06:35:58;;;;;;;9.38;6.95;;;;;;;22.23;47.16;99928.06;4456185;32;33140;-80
2022/05/12 06:38:26;;;;;;;9.45;5.87;;;;;;;22.33;46.88;99928.91;4443489;32;34044;-79
2022/05/12 06:40:56;;;;;;;10.18;7.10;;;;;;;22.47;45.86;99934.75;4442930;32;33737;-80
2022/05/12 06:43:26;;;;;;;12.30;6.68;;;;;;;22.29;45.44;99929.75;4456205;32;33943;-80
2022/05/12 06:45:56;;;;;;;10.90;6.32;;;;;;;22.35;45.62;99934.22;4430506;32;33549;-80
2022/05/12 06:48:24;;;;;;;9.77;5.80;;;;;;;22.38;45.28;99933.66;4456189;32;34468;-80
2022/05/12 06:50:52;;;;;;;12.68;6.95;;;;;;;22.51;45.12;99943.44;4443140;32;34222;-80
2022/05/12 06:53:20;;;;;;;9.88;6.15;;;;;;;22.66;44.85;99938.66;4443274;32;34082;-80
2022/05/12 06:55:48;;;;;;;10.95;6.82;;;;;;;22.60;44.33;99937.00;4442201;32;34273;-80
2022/05/12 06:58:17;;;;;;;10.98;6.40;;;;;;;22.80;44.48;99936.12;4430344;32;32222;-80
2022/05/12 07:00:46;;;;;;;12.37;8.25;;;;;;;22.96;44.39;99951.75;4442957;32;34511;-79
2022/05/12 07:03:13;;;;;;;23.38;14.80;;;;;;;22.89;44.89;99940.00;4429915;32;33375;-80
2022/05/12 07:05:41;;;;;;;13.57;7.75;;;;;;;22.99;44.36;99939.16;4444298;32;33047;-79
2022/05/12 07:08:09;;;;;;;12.82;8.77;;;;;;;23.17;44.33;99935.72;4458941;32;33941;-80
2022/05/12 07:10:37;;;;;;;15.73;10.05;;;;;;;23.07;44.51;99935.75;4443977;32;35369;-81
2022/05/12 07:13:08;;;;;;;12.98;8.13;;;;;;;23.00;44.35;99933.25;4431625;32;34141;-84
2022/05/12 07:15:36;;;;;;;13.88;7.40;;;;;;;22.99;44.13;99928.78;4441377;32;33715;-84
2022/05/12 07:18:04;;;;;;;8.88;6.50;;;;;;;23.29;43.89;99927.84;4440561;32;34781;-83
2022/05/12 07:28:54;;;;;;;13.70;7.45;;;;;;;23.52;43.24;99931.06;4442096;32;32517;-84
2022/05/12 07:31:22;;;;;;;18.02;7.10;;;;;;;23.75;43.42;99933.19;4440249;32;34435;-84
2022/05/12 07:33:54;;;;;;;13.60;7.00;;;;;;;23.77;43.15;99932.91;4440142;32;34854;-84
2022/05/12 07:36:25;;;;;;;13.48;6.43;;;;;;;23.93;42.75;99935.31;4440511;32;33576;-84
2022/05/12 07:38:58;;;;;;;12.57;6.28;;;;;;;24.04;42.76;99932.44;4427662;32;34551;-85
2022/05/12 07:41:30;;;;;;;13.18;5.87;;;;;;;24.11;42.90;99928.16;4440168;32;35846;-84
2022/05/12 07:43:58;;;;;;;10.02;6.05;;;;;;;24.12;43.66;99923.38;4439709;32;33980;-84
2022/05/12 07:46:33;;;;;;;11.23;6.30;;;;;;;24.28;43.63;99924.97;4439705;32;32272;-85
2022/05/12 07:49:02;;;;;;;;;;;;;;;24.25;41.93;99917.97;4427416;32;33001;-86
2022/05/12 07:51:32;;;;;;;12.02;5.80;;;;;;;24.22;42.35;99924.16;4439869;32;34781;-84
2022/05/12 07:54:02;;;;;;;54.90;12.65;;;;;;;24.28;42.59;99923.00;4439615;32;33444;-84
2022/05/12 07:56:33;;;;;;;11.65;5.60;;;;;;;24.57;42.58;99920.22;4439590;32;32533;-85
2022/05/12 07:59:01;;;;;;;22.40;7.55;;;;;;;24.71;41.96;99925.09;4426780;32;33331;-86
2022/05/12 08:01:29;;;;;;;11.75;5.95;;;;;;;24.84;41.89;99919.63;4414202;32;33921;-84
2022/05/12 08:03:57;;;;;;;11.95;5.37;;;;;;;24.86;40.65;99924.94;4427124;32;34900;-84
2022/05/12 08:06:25;;;;;;;10.00;5.18;;;;;;;24.99;40.61;99921.47;4439896;32;33292;-86
2022/05/12 08:08:53;;;;;;;11.85;5.62;;;;;;;24.94;41.31;99925.13;4416261;32;32400;-84
2022/05/12 08:11:25;;;;;;;10.60;6.03;;;;;;;25.14;40.72;99929.72;4442030;32;35209;-84
2022/05/12 08:13:53;;;;;;;11.93;6.07;;;;;;;25.14;40.08;99929.72;4441679;32;33970;-84
2022/05/12 08:16:21;;;;;;;9.65;5.20;;;;;;;25.41;40.89;99934.69;4429455;32;34187;-81
2022/05/12 08:18:54;;;;;;;10.35;5.60;;;;;;;25.49;40.63;99936.81;4429026;32;33825;-86
2022/05/12 08:21:26;;;;;;;11.10;5.40;;;;;;;25.64;40.04;99933.00;4428809;32;32833;-86
2022/05/12 08:23:54;;;;;;;11.45;5.43;;;;;;;25.53;38.74;99923.84;4429146;32;33889;-86
2022/05/12 08:26:23;;;;;;;23.70;7.55;;;;;;;25.90;38.72;99923.06;4429219;32;34039;-86
2022/05/12 08:28:51;;;;;;;10.07;5.40;;;;;;;25.97;39.12;99928.31;4428801;32;33447;-86
2022/05/12 08:31:21;;;;;;;13.88;5.10;;;;;;;25.91;38.87;99927.53;4428770;32;33804;-86
2022/05/12 08:33:49;;;;;;;11.18;4.85;;;;;;;26.24;38.92;99922.78;4428607;32;32458;-87
2022/05/12 08:36:17;;;;;;;12.93;6.37;;;;;;;26.29;37.84;99919.03;4428812;32;33055;-86
2022/05/12 08:38:46;;;;;;;9.05;5.32;;;;;;;26.45;37.27;99920.47;4441511;32;33841;-86
2022/05/12 08:41:21;;;;;;;9.23;4.68;;;;;;;26.32;37.32;99932.53;4429195;32;34636;-86
2022/05/12 08:43:56;;;;;;;15.73;6.05;;;;;;;26.55;37.08;99925.94;4428722;32;32793;-87
2022/05/12 08:46:35;;;;;;;10.60;5.90;;;;;;;26.75;37.03;99929.50;4441328;32;33584;-87
2022/05/12 08:49:32;;;;;;;10.48;5.07;;;;;;;26.73;38.25;99928.97;4428923;32;34734;-87
2022/05/12 08:52:09;;;;;;;23.73;5.90;;;;;;;27.12;36.50;99931.34;4415910;32;33716;-87
2022/05/12 08:54:40;;;;;;;18.37;5.55;;;;;;;27.35;35.75;99935.06;4428470;32;33247;-88
2022/05/12 08:57:34;;;;;;;10.50;5.20;;;;;;;27.20;36.09;99930.63;4428790;32;34017;-87
2022/05/12 09:00:09;;;;;;;8.45;5.32;;;;;;;27.31;35.98;99926.41;4428333;32;31946;-86
2022/05/12 09:02:55;;;;;;;;;;;;;;;27.58;35.41;99936.81;4428980;32;34108;-86
2022/05/12 09:05:33;;;;;;;18.80;7.70;;;;;;;27.74;35.58;99929.72;4441439;32;35231;-85
2022/05/12 09:08:24;;;;;;;22.27;11.05;;;;;;;27.84;35.63;99928.66;4441333;32;33422;-88
2022/05/12 09:11:04;;;;;;;13.27;6.87;;;;;;;28.08;35.67;99922.69;4430153;32;32368;-87
2022/05/12 09:13:45;;;;;;;8.68;5.30;;;;;;;28.09;35.28;99922.38;4441232;32;35951;-87
2022/05/12 09:16:28;;;;;;;13.80;6.05;;;;;;;28.19;34.99;99929.75;4441156;32;33838;-86
2022/05/12 09:18:57;;;;;;;10.13;5.10;;;;;;;28.46;35.03;99928.84;4440918;32;32892;-87
2022/05/12 09:21:28;;;;;;;10.85;4.87;;;;;;;28.47;34.69;99927.69;4441540;32;34624;-87
2022/05/12 09:23:57;;;;;;;9.70;5.50;;;;;;;28.55;34.11;99926.06;4441199;32;34549;-88
2022/05/12 09:26:44;;;;;;;12.77;6.75;;;;;;;28.69;34.12;99930.44;4441142;32;33571;-85
2022/05/12 09:29:17;;;;;;;19.87;12.35;;;;;;;28.99;34.41;99931.66;4453783;32;32990;-84
2022/05/12 09:31:54;;;;;;;12.45;7.60;;;;;;;29.26;33.21;99929.72;4440963;32;33241;-85
2022/05/12 09:34:29;;;;;;;10.95;5.00;;;;;;;29.38;33.72;99927.94;4428375;32;32933;-84
2022/05/12 09:37:26;;;;;;;11.98;5.90;;;;;;;29.53;32.70;99928.69;4453772;32;34556;-84
2022/05/12 09:40:13;;;;;;;9.00;4.90;;;;;;;29.58;32.84;99923.72;4451618;32;32672;-84
2022/05/12 09:42:45;;;;;;;10.90;5.22;;;;;;;29.80;32.07;99929.25;4417596;32;33142;-85
2022/05/12 09:45:24;;;;;;;34.90;9.38;;;;;;;30.03;32.20;99929.94;4443053;32;34596;-85
2022/05/12 09:48:28;;;;;;;20.70;6.22;;;;;;;29.97;32.22;99927.56;4445497;32;34358;-85
2022/05/12 09:51:27;;;;;;;17.77;8.90;;;;;;;30.25;31.86;99922.44;4426029;32;32986;-85
2022/05/12 09:54:12;;;;;;;11.20;5.53;;;;;;;30.34;31.02;99924.09;4440813;32;33636;-85
2022/05/12 09:56:46;;;;;;;9.68;5.45;;;;;;;30.53;30.75;99917.22;4440876;32;33774;-84
2022/05/12 09:59:14;;;;;;;10.82;4.82;;;;;;;30.55;30.24;99914.91;4440924;32;32390;-85
2022/05/12 10:07:53;;;;;;;13.02;5.43;;;;;;;30.69;30.48;99910.69;4453472;32;34045;-83
2022/05/12 10:08:27;;;;;;;9.23;4.97;;;;;;;31.02;30.50;99908.09;4442621;32;32928;-84
2022/05/12 10:10:59;;;;;;;9.05;5.32;;;;;;;31.10;29.91;99912.91;4427844;32;34041;-84
2022/05/12 10:13:53;;;;;;;8.73;4.50;;;;;;;31.25;29.99;99905.00;4440745;32;33756;-84
2022/05/12 10:16:26;;;;;;;8.90;4.72;;;;;;;31.50;29.66;99901.19;4440745;32;32837;-85
2022/05/12 10:18:56;;;;;;;9.45;5.55;;;;;;;31.54;28.32;99890.81;4440796;32;32685;-90
2022/05/12 10:21:36;;;;;;;7.55;4.57;;;;;;;31.56;29.08;99890.47;4440657;32;32346;-88
2022/05/12 10:24:18;;;;;;;20.85;6.95;;;;;;;31.99;29.30;99887.31;4412216;32;33037;-89
2022/05/12 10:27:02;;;;;;;9.95;5.82;;;;;;;32.19;29.28;99880.78;4412699;32;34629;-89
2022/05/12 10:30:02;;;;;;;11.48;5.60;;;;;;;32.36;28.77;99876.97;4411792;32;35255;-88
2022/05/12 10:32:54;;;;;;;10.30;4.97;;;;;;;32.57;28.36;99877.72;4425201;32;34760;-89
2022/05/12 10:35:46;;;;;;;15.68;6.78;;;;;;;32.76;28.02;99874.34;4413238;32;31767;-90
2022/05/12 10:38:39;;;;;;;14.20;7.85;;;;;;;32.72;27.74;99884.75;4414413;32;32472;-89
2022/05/12 10:42:04;;;;;;;9.98;6.57;;;;;;;32.90;26.84;99877.69;4415151;32;33719;-86
2022/05/12 10:44:41;;;;;;;9.85;6.07;;;;;;;33.18;26.97;99874.13;4412837;32;33455;-89
2022/05/12 10:47:47;;;;;;;10.68;5.40;;;;;;;33.30;26.71;99872.16;4399550;32;31906;-90
2022/05/12 10:50:19;;;;;;;10.57;5.45;;;;;;;33.58;26.76;99877.09;4395190;32;32384;-90
2022/05/12 10:52:59;;;;;;;25.35;20.98;;;;;;;33.70;26.07;99874.25;4425014;32;34430;-87
2022/05/12 10:55:28;;;;;;;12.82;8.63;;;;;;;33.85;27.08;99882.03;4426838;32;33222;-89
2022/05/12 10:58:19;;;;;;;14.43;8.05;;;;;;;33.87;26.52;99864.59;4414867;32;31944;-90
2022/05/12 11:00:56;;;;;;;14.95;7.03;;;;;;;33.98;26.86;99875.12;4428710;32;32168;-88
2022/05/12 11:03:29;;;;;;;13.85;4.65;;;;;;;34.10;27.75;99876.25;4414761;32;33698;-89
2022/05/12 11:06:01;;;;;;;9.60;4.90;;;;;;;34.17;25.91;99868.75;4412619;32;34147;-89
2022/05/12 11:08:40;;;;;;;14.40;5.47;;;;;;;34.35;26.52;99869.31;4400004;32;33464;-87
2022/05/12 11:11:22;;;;;;;10.07;5.18;;;;;;;34.55;26.03;99847.44;4414999;32;31609;-88
2022/05/12 11:13:59;;;;;;;14.50;9.27;;;;;;;34.85;25.29;99850.72;4428220;32;35479;-86
2022/05/12 11:16:48;;;;;;;121.32;65.78;;;;;;;34.86;24.50;99838.94;4427483;32;33465;-89
2022/05/12 11:19:21;;;;;;;215.27;118.53;;;;;;;34.96;24.31;99840.41;4427514;32;33754;-87
2022/05/12 11:22:07;;;;;;;36.67;17.85;;;;;;;35.08;24.11;99833.78;4414987;32;33302;-86
2022/05/12 11:24:57;;;;;;;10.75;5.97;;;;;;;34.89;23.25;99852.47;4427337;32;33802;-86
2022/05/12 11:27:25;;;;;;;133.65;38.35;;;;;;;34.79;22.62;99838.72;4440332;32;34743;-87
2022/05/12 11:30:08;;;;;;;119.13;52.97;;;;;;;34.97;23.70;99834.34;4427176;32;31490;-87
2022/05/12 11:33:02;;;;;;;29.17;11.10;;;;;;;35.06;23.94;99842.72;4426951;32;33156;-87
2022/05/12 11:35:39;;;;;;;28.95;16.17;;;;;;;35.05;24.18;99832.50;4412585;32;33205;-87
2022/05/12 11:38:11;;;;;;;18.20;10.80;;;;;;;34.98;22.60;99830.28;4427127;32;32366;-86
2022/05/12 11:40:43;;;;;;;18.23;9.88;;;;;;;34.75;22.32;99826.41;4440653;32;33411;-88
2022/05/12 11:46:34;;;;;;;9.80;4.47;;;;;;;35.19;22.73;99820.56;4455661;32;34377;-89
2022/05/12 11:49:20;;;;;;;7.22;4.47;;;;;;;35.16;23.95;99816.44;4420199;32;31859;-87
2022/05/12 11:52:03;;;;;;;11.12;6.37;;;;;;;35.20;22.32;99816.53;4428927;32;32544;-86
2022/05/12 11:54:38;;;;;;;9.45;4.32;;;;;;;34.88;21.81;99813.72;4428832;32;32239;-88
2022/05/12 11:57:32;;;;;;;8.80;3.97;;;;;;;34.69;22.16;99825.84;4429368;32;33993;-87
2022/05/12 12:00:08;;;;;;;12.20;6.10;;;;;;;34.61;22.24;99818.28;4429348;32;33974;-87
2022/05/12 12:02:41;;;;;;;6.75;3.78;;;;;;;34.45;23.22;99814.59;4428867;32;31471;-87
2022/05/12 12:05:32;;;;;;;5.65;3.20;;;;;;;35.03;22.15;99816.94;4428944;32;33866;-87
2022/05/12 12:08:09;;;;;;;7.78;3.35;;;;;;;35.32;20.50;99807.88;4441416;32;34992;-87
2022/05/12 12:10:43;;;;;;;6.03;3.17;;;;;;;34.36;20.29;99816.81;4428864;32;32476;-87
2022/05/12 12:13:37;;;;;;;9.25;3.60;;;;;;;34.65;19.65;99819.22;4429052;32;34320;-87
2022/05/12 12:16:21;;;;;;;6.82;3.30;;;;;;;34.52;19.74;99811.94;4428833;32;33164;-88